sensor_id;sensor_type;location;lat;lon;timestamp;temperature;humidity
79491;SHT31;73788;53.048;18.472;2023-11-19T00:01:35;-0.78;82.50
79491;SHT31;73788;53.048;18.472;2023-11-19T00:04:02;-0.83;82.50
79491;SHT31;73788;53.048;18.472;2023-11-19T00:06:31;-0.82;82.50
79491;SHT31;73788;53.048;18.472;2023-11-19T00:08:58;-0.84;82.50
79491;SHT31;73788;53.048;18.472;2023-11-19T00:11:26;-0.90;82.50
79491;SHT31;73788;53.048;18.472;2023-11-19T00:13:53;-0.96;82.50
79491;SHT31;73788;53.048;18.472;2023-11-19T00:16:20;-1.01;82.50
79491;SHT31;73788;53.048;18.472;2023-11-19T00:18:48;-1.02;82.50
79491;SHT31;73788;53.048;18.472;2023-11-19T00:21:16;-1.03;82.50
79491;SHT31;73788;53.048;18.472;2023-11-19T00:23:43;-1.09;82.50
79491;SHT31;73788;53.048;18.472;2023-11-19T00:26:10;-1.14;82.50
79491;SHT31;73788;53.048;18.472;2023-11-19T00:28:38;-1.17;82.50
79491;SHT31;73788;53.048;18.472;2023-11-19T00:31:06;-1.16;82.50
79491;SHT31;73788;53.048;18.472;2023-11-19T00:33:33;-1.18;82.50
79491;SHT31;73788;53.048;18.472;2023-11-19T00:36:00;-1.24;82.50
79491;SHT31;73788;53.048;18.472;2023-11-19T00:38:27;-1.28;82.50
79491;SHT31;73788;53.048;18.472;2023-11-19T00:40:54;-1.32;82.50
79491;SHT31;73788;53.048;18.472;2023-11-19T00:43:21;-1.30;82.50
79491;SHT31;73788;53.048;18.472;2023-11-19T00:45:48;-1.30;82.50
79491;SHT31;73788;53.048;18.472;2023-11-19T00:48:17;-1.30;82.50
79491;SHT31;73788;53.048;18.472;2023-11-19T00:50:44;-1.32;82.52
79491;SHT31;73788;53.048;18.472;2023-11-19T00:53:12;-1.33;82.50
79491;SHT31;73788;53.048;18.472;2023-11-19T00:55:40;-1.30;82.50
79491;SHT31;73788;53.048;18.472;2023-11-19T00:58:07;-1.34;82.50
79491;SHT31;73788;53.048;18.472;2023-11-19T01:00:34;-1.36;82.50
79491;SHT31;73788;53.048;18.472;2023-11-19T01:03:01;-1.38;82.50
79491;SHT31;73788;53.048;18.472;2023-11-19T01:05:28;-1.42;82.51
79491;SHT31;73788;53.048;18.472;2023-11-19T01:07:56;-1.40;82.50
79491;SHT31;73788;53.048;18.472;2023-11-19T01:10:23;-1.38;82.50
79491;SHT31;73788;53.048;18.472;2023-11-19T01:12:50;-1.39;82.50
79491;SHT31;73788;53.048;18.472;2023-11-19T01:15:18;-1.44;82.50
79491;SHT31;73788;53.048;18.472;2023-11-19T01:17:45;-1.50;82.50
79491;SHT31;73788;53.048;18.472;2023-11-19T01:20:12;-1.54;82.50
79491;SHT31;73788;53.048;18.472;2023-11-19T01:22:40;-1.54;82.51
79491;SHT31;73788;53.048;18.472;2023-11-19T01:25:07;-1.54;82.50
79491;SHT31;73788;53.048;18.472;2023-11-19T01:27:34;-1.55;82.51
79491;SHT31;73788;53.048;18.472;2023-11-19T01:30:02;-1.61;82.51
79491;SHT31;73788;53.048;18.472;2023-11-19T01:32:30;-1.65;82.54
79491;SHT31;73788;53.048;18.472;2023-11-19T01:34:57;-1.61;82.53
79491;SHT31;73788;53.048;18.472;2023-11-19T01:37:24;-1.60;82.53
79491;SHT31;73788;53.048;18.472;2023-11-19T01:39:51;-1.63;82.52
79491;SHT31;73788;53.048;18.472;2023-11-19T01:42:18;-1.66;82.57
79491;SHT31;73788;53.048;18.472;2023-11-19T01:44:58;-1.69;82.59
79491;SHT31;73788;53.048;18.472;2023-11-19T01:47:26;-1.70;82.57
79491;SHT31;73788;53.048;18.472;2023-11-19T01:49:56;-1.69;82.58
79491;SHT31;73788;53.048;18.472;2023-11-19T01:52:25;-1.70;82.59
79491;SHT31;73788;53.048;18.472;2023-11-19T01:54:53;-1.75;82.60
79491;SHT31;73788;53.048;18.472;2023-11-19T01:57:22;-1.78;82.60
79491;SHT31;73788;53.048;18.472;2023-11-19T01:59:50;-1.82;82.60
79491;SHT31;73788;53.048;18.472;2023-11-19T02:02:19;-1.84;82.60
79491;SHT31;73788;53.048;18.472;2023-11-19T02:04:49;-1.87;82.60
79491;SHT31;73788;53.048;18.472;2023-11-19T02:07:19;-1.88;82.60
79491;SHT31;73788;53.048;18.472;2023-11-19T02:09:46;-1.90;82.60
79491;SHT31;73788;53.048;18.472;2023-11-19T02:12:14;-1.89;82.60
79491;SHT31;73788;53.048;18.472;2023-11-19T02:14:41;-1.87;82.61
79491;SHT31;73788;53.048;18.472;2023-11-19T02:17:24;-1.85;82.60
79491;SHT31;73788;53.048;18.472;2023-11-19T02:19:57;-1.89;82.62
79491;SHT31;73788;53.048;18.472;2023-11-19T02:22:24;-1.92;82.63
79491;SHT31;73788;53.048;18.472;2023-11-19T02:24:54;-1.90;82.66
79491;SHT31;73788;53.048;18.472;2023-11-19T02:30:06;-1.86;82.66
79491;SHT31;73788;53.048;18.472;2023-11-19T02:32:35;-1.87;82.70
79491;SHT31;73788;53.048;18.472;2023-11-19T02:35:02;-1.87;82.69
79491;SHT31;73788;53.048;18.472;2023-11-19T02:37:29;-1.84;82.70
79491;SHT31;73788;53.048;18.472;2023-11-19T02:39:56;-1.79;82.69
79491;SHT31;73788;53.048;18.472;2023-11-19T02:42:29;-1.76;82.70
79491;SHT31;73788;53.048;18.472;2023-11-19T02:44:56;-1.76;82.70
79491;SHT31;73788;53.048;18.472;2023-11-19T02:47:24;-1.71;82.70
79491;SHT31;73788;53.048;18.472;2023-11-19T02:49:51;-1.64;82.70
79491;SHT31;73788;53.048;18.472;2023-11-19T02:52:19;-1.53;82.70
79491;SHT31;73788;53.048;18.472;2023-11-19T02:54:46;-1.44;82.73
79491;SHT31;73788;53.048;18.472;2023-11-19T02:57:13;-1.38;82.76
79491;SHT31;73788;53.048;18.472;2023-11-19T02:59:40;-1.31;82.80
79491;SHT31;73788;53.048;18.472;2023-11-19T03:02:09;-1.19;82.80
79491;SHT31;73788;53.048;18.472;2023-11-19T03:04:42;-1.10;82.80
79491;SHT31;73788;53.048;18.472;2023-11-19T03:07:10;-1.07;82.80
79491;SHT31;73788;53.048;18.472;2023-11-19T03:09:37;-1.04;82.81
79491;SHT31;73788;53.048;18.472;2023-11-19T03:12:07;-0.98;82.85
79491;SHT31;73788;53.048;18.472;2023-11-19T03:14:34;-0.94;82.86
79491;SHT31;73788;53.048;18.472;2023-11-19T03:17:01;-0.93;82.90
79491;SHT31;73788;53.048;18.472;2023-11-19T03:19:30;-0.90;82.90
79491;SHT31;73788;53.048;18.472;2023-11-19T03:21:57;-0.84;82.90
79491;SHT31;73788;53.048;18.472;2023-11-19T03:24:24;-0.80;82.90
79491;SHT31;73788;53.048;18.472;2023-11-19T03:26:51;-0.82;82.90
79491;SHT31;73788;53.048;18.472;2023-11-19T03:29:18;-0.82;82.90
79491;SHT31;73788;53.048;18.472;2023-11-19T03:31:46;-0.79;82.91
79491;SHT31;73788;53.048;18.472;2023-11-19T03:34:13;-0.73;82.93
79491;SHT31;73788;53.048;18.472;2023-11-19T03:36:40;-0.71;82.92
79491;SHT31;73788;53.048;18.472;2023-11-19T03:39:07;-0.73;82.99
79491;SHT31;73788;53.048;18.472;2023-11-19T03:41:34;-0.72;83.00
79491;SHT31;73788;53.048;18.472;2023-11-19T03:44:01;-0.68;82.99
79491;SHT31;73788;53.048;18.472;2023-11-19T03:46:28;-0.65;83.00
79491;SHT31;73788;53.048;18.472;2023-11-19T03:48:56;-0.64;83.00
79491;SHT31;73788;53.048;18.472;2023-11-19T03:51:23;-0.64;83.00
79491;SHT31;73788;53.048;18.472;2023-11-19T03:53:51;-0.59;83.00
79491;SHT31;73788;53.048;18.472;2023-11-19T03:56:18;-0.55;83.01
79491;SHT31;73788;53.048;18.472;2023-11-19T03:58:45;-0.55;83.03
79491;SHT31;73788;53.048;18.472;2023-11-19T04:01:12;-0.57;83.06
79491;SHT31;73788;53.048;18.472;2023-11-19T04:03:42;-0.54;83.04
79491;SHT31;73788;53.048;18.472;2023-11-19T04:06:09;-0.50;83.07
79491;SHT31;73788;53.048;18.472;2023-11-19T04:08:36;-0.52;83.09
79491;SHT31;73788;53.048;18.472;2023-11-19T04:11:03;-0.48;83.10
79491;SHT31;73788;53.048;18.472;2023-11-19T04:13:31;-0.41;83.10
79491;SHT31;73788;53.048;18.472;2023-11-19T04:15:58;-0.40;83.10
79491;SHT31;73788;53.048;18.472;2023-11-19T04:18:26;-0.40;83.10
79491;SHT31;73788;53.048;18.472;2023-11-19T04:20:53;-0.37;83.10
79491;SHT31;73788;53.048;18.472;2023-11-19T04:23:21;-0.31;83.13
79491;SHT31;73788;53.048;18.472;2023-11-19T04:25:48;-0.28;83.16
79491;SHT31;73788;53.048;18.472;2023-11-19T04:28:15;-0.28;83.16
79491;SHT31;73788;53.048;18.472;2023-11-19T04:30:42;-0.24;83.20
79491;SHT31;73788;53.048;18.472;2023-11-19T04:33:09;-0.18;83.20
79491;SHT31;73788;53.048;18.472;2023-11-19T04:35:36;-0.18;83.20
79491;SHT31;73788;53.048;18.472;2023-11-19T04:38:03;-0.20;83.20
79491;SHT31;73788;53.048;18.472;2023-11-19T04:40:32;-0.18;83.20
79491;SHT31;73788;53.048;18.472;2023-11-19T04:43:00;-0.14;83.20
79491;SHT31;73788;53.048;18.472;2023-11-19T04:45:27;-0.11;83.21
79491;SHT31;73788;53.048;18.472;2023-11-19T04:47:54;-0.13;83.22
79491;SHT31;73788;53.048;18.472;2023-11-19T04:50:21;-0.13;83.26
79491;SHT31;73788;53.048;18.472;2023-11-19T04:52:48;-0.06;83.28
79491;SHT31;73788;53.048;18.472;2023-11-19T04:55:15;-0.05;83.30
79491;SHT31;73788;53.048;18.472;2023-11-19T04:57:44;-0.06;83.29
79491;SHT31;73788;53.048;18.472;2023-11-19T05:00:11;-0.06;83.30
79491;SHT31;73788;53.048;18.472;2023-11-19T05:02:40;-0.02;83.30
79491;SHT31;73788;53.048;18.472;2023-11-19T05:05:07;0.01;83.30
79491;SHT31;73788;53.048;18.472;2023-11-19T05:07:35;-0.00;83.30
79491;SHT31;73788;53.048;18.472;2023-11-19T05:10:02;-0.02;83.30
79491;SHT31;73788;53.048;18.472;2023-11-19T05:12:30;0.01;83.30
79491;SHT31;73788;53.048;18.472;2023-11-19T05:14:58;0.06;83.32
79491;SHT31;73788;53.048;18.472;2023-11-19T05:17:25;0.08;83.34
79491;SHT31;73788;53.048;18.472;2023-11-19T05:19:52;0.05;83.34
79491;SHT31;73788;53.048;18.472;2023-11-19T05:22:20;0.06;83.38
79491;SHT31;73788;53.048;18.472;2023-11-19T05:24:48;0.12;83.39
79491;SHT31;73788;53.048;18.472;2023-11-19T05:27:16;0.11;83.39
79491;SHT31;73788;53.048;18.472;2023-11-19T05:29:43;0.08;83.39
79491;SHT31;73788;53.048;18.472;2023-11-19T05:32:10;0.09;83.40
79491;SHT31;73788;53.048;18.472;2023-11-19T05:34:37;0.14;83.40
79491;SHT31;73788;53.048;18.472;2023-11-19T05:37:04;0.15;83.41
79491;SHT31;73788;53.048;18.472;2023-11-19T05:39:32;0.12;83.41
79491;SHT31;73788;53.048;18.472;2023-11-19T05:41:59;0.14;83.40
79491;SHT31;73788;53.048;18.472;2023-11-19T05:44:26;0.18;83.42
79491;SHT31;73788;53.048;18.472;2023-11-19T05:46:53;0.17;83.43
79491;SHT31;73788;53.048;18.472;2023-11-19T05:49:20;0.18;83.49
79491;SHT31;73788;53.048;18.472;2023-11-19T05:51:47;0.21;83.46
79491;SHT31;73788;53.048;18.472;2023-11-19T05:54:15;0.25;83.49
79491;SHT31;73788;53.048;18.472;2023-11-19T05:56:46;0.24;83.50
79491;SHT31;73788;53.048;18.472;2023-11-19T05:59:20;0.24;83.50
79491;SHT31;73788;53.048;18.472;2023-11-19T06:01:49;0.27;83.50
79491;SHT31;73788;53.048;18.472;2023-11-19T06:04:16;0.30;83.50
79491;SHT31;73788;53.048;18.472;2023-11-19T06:06:43;0.29;83.50
79491;SHT31;73788;53.048;18.472;2023-11-19T06:09:10;0.29;83.51
79491;SHT31;73788;53.048;18.472;2023-11-19T06:11:39;0.31;83.51
79491;SHT31;73788;53.048;18.472;2023-11-19T06:14:06;0.35;83.54
79491;SHT31;73788;53.048;18.472;2023-11-19T06:16:33;0.33;83.55
79491;SHT31;73788;53.048;18.472;2023-11-19T06:19:00;0.32;83.58
79491;SHT31;73788;53.048;18.472;2023-11-19T06:21:27;0.35;83.57
79491;SHT31;73788;53.048;18.472;2023-11-19T06:23:55;0.40;83.60
79491;SHT31;73788;53.048;18.472;2023-11-19T06:26:22;0.38;83.60
79491;SHT31;73788;53.048;18.472;2023-11-19T06:28:49;0.36;83.60
79491;SHT31;73788;53.048;18.472;2023-11-19T06:31:16;0.39;83.60
79491;SHT31;73788;53.048;18.472;2023-11-19T06:33:44;0.42;83.60
79491;SHT31;73788;53.048;18.472;2023-11-19T06:36:13;0.41;83.60
79491;SHT31;73788;53.048;18.472;2023-11-19T06:38:43;0.40;83.60
79491;SHT31;73788;53.048;18.472;2023-11-19T06:41:10;0.39;83.61
79491;SHT31;73788;53.048;18.472;2023-11-19T06:43:37;0.46;83.61
79491;SHT31;73788;53.048;18.472;2023-11-19T06:46:04;0.47;83.63
79491;SHT31;73788;53.048;18.472;2023-11-19T06:48:32;0.46;83.67
79491;SHT31;73788;53.048;18.472;2023-11-19T06:51:00;0.48;83.67
79491;SHT31;73788;53.048;18.472;2023-11-19T06:53:27;0.53;83.68
79491;SHT31;73788;53.048;18.472;2023-11-19T06:55:54;0.54;83.68
79491;SHT31;73788;53.048;18.472;2023-11-19T06:58:21;0.54;83.70
79491;SHT31;73788;53.048;18.472;2023-11-19T07:00:48;0.54;83.70
79491;SHT31;73788;53.048;18.472;2023-11-19T07:03:17;0.59;83.70
79491;SHT31;73788;53.048;18.472;2023-11-19T07:05:44;0.60;83.70
79491;SHT31;73788;53.048;18.472;2023-11-19T07:08:11;0.60;83.70
79491;SHT31;73788;53.048;18.472;2023-11-19T07:10:38;0.59;83.71
79491;SHT31;73788;53.048;18.472;2023-11-19T07:13:05;0.64;83.71
79491;SHT31;73788;53.048;18.472;2023-11-19T07:15:33;0.65;83.70
79491;SHT31;73788;53.048;18.472;2023-11-19T07:18:00;0.66;83.75
79491;SHT31;73788;53.048;18.472;2023-11-19T07:20:27;0.66;83.75
79491;SHT31;73788;53.048;18.472;2023-11-19T07:22:54;0.72;83.75
79491;SHT31;73788;53.048;18.472;2023-11-19T07:25:23;0.79;83.79
79491;SHT31;73788;53.048;18.472;2023-11-19T07:27:51;0.80;83.80
79491;SHT31;73788;53.048;18.472;2023-11-19T07:30:19;0.81;83.80
79491;SHT31;73788;53.048;18.472;2023-11-19T07:32:46;0.92;83.80
79491;SHT31;73788;53.048;18.472;2023-11-19T07:35:13;0.97;83.80
79491;SHT31;73788;53.048;18.472;2023-11-19T07:37:42;0.97;83.81
79491;SHT31;73788;53.048;18.472;2023-11-19T07:40:09;1.00;83.83
79491;SHT31;73788;53.048;18.472;2023-11-19T07:42:38;1.03;83.82
79491;SHT31;73788;53.048;18.472;2023-11-19T07:45:06;1.05;83.84
79491;SHT31;73788;53.048;18.472;2023-11-19T07:47:33;1.04;83.87
79491;SHT31;73788;53.048;18.472;2023-11-19T07:50:00;1.02;83.88
79491;SHT31;73788;53.048;18.472;2023-11-19T07:52:28;1.06;83.90
79491;SHT31;73788;53.048;18.472;2023-11-19T07:54:55;1.11;83.88
79491;SHT31;73788;53.048;18.472;2023-11-19T07:57:23;1.09;83.90
79491;SHT31;73788;53.048;18.472;2023-11-19T07:59:51;1.04;83.90
79491;SHT31;73788;53.048;18.472;2023-11-19T08:02:18;1.04;83.90
79491;SHT31;73788;53.048;18.472;2023-11-19T08:04:46;1.12;83.90
79491;SHT31;73788;53.048;18.472;2023-11-19T08:07:16;1.11;83.90
79491;SHT31;73788;53.048;18.472;2023-11-19T08:09:46;1.10;83.91
79491;SHT31;73788;53.048;18.472;2023-11-19T08:12:13;1.10;83.90
79491;SHT31;73788;53.048;18.472;2023-11-19T08:14:42;1.13;83.90
79491;SHT31;73788;53.048;18.472;2023-11-19T08:17:10;1.12;83.91
79491;SHT31;73788;53.048;18.472;2023-11-19T08:19:37;1.10;83.91
79491;SHT31;73788;53.048;18.472;2023-11-19T08:22:04;1.16;83.94
79491;SHT31;73788;53.048;18.472;2023-11-19T08:24:31;1.19;83.93
79491;SHT31;73788;53.048;18.472;2023-11-19T08:26:59;1.13;83.93
79491;SHT31;73788;53.048;18.472;2023-11-19T08:29:26;1.15;83.93
79491;SHT31;73788;53.048;18.472;2023-11-19T08:31:54;1.22;83.93
79491;SHT31;73788;53.048;18.472;2023-11-19T08:34:21;1.24;83.97
79491;SHT31;73788;53.048;18.472;2023-11-19T08:36:51;1.21;83.99
79491;SHT31;73788;53.048;18.472;2023-11-19T08:39:19;1.27;83.98
79491;SHT31;73788;53.048;18.472;2023-11-19T08:41:50;1.29;83.98
79491;SHT31;73788;53.048;18.472;2023-11-19T08:44:17;1.29;83.99
79491;SHT31;73788;53.048;18.472;2023-11-19T08:46:47;1.31;84.00
79491;SHT31;73788;53.048;18.472;2023-11-19T08:49:15;1.34;84.00
79491;SHT31;73788;53.048;18.472;2023-11-19T08:51:43;1.39;84.00
79491;SHT31;73788;53.048;18.472;2023-11-19T08:54:11;1.40;84.00
79491;SHT31;73788;53.048;18.472;2023-11-19T08:56:39;1.40;84.00
79491;SHT31;73788;53.048;18.472;2023-11-19T08:59:06;1.43;84.00
79491;SHT31;73788;53.048;18.472;2023-11-19T09:01:33;1.45;84.00
79491;SHT31;73788;53.048;18.472;2023-11-19T09:04:01;1.38;84.00
79491;SHT31;73788;53.048;18.472;2023-11-19T09:06:28;1.39;84.00
79491;SHT31;73788;53.048;18.472;2023-11-19T09:08:56;1.43;84.00
79491;SHT31;73788;53.048;18.472;2023-11-19T09:11:27;1.45;84.03
79491;SHT31;73788;53.048;18.472;2023-11-19T09:13:55;1.47;84.02
79491;SHT31;73788;53.048;18.472;2023-11-19T09:16:22;1.54;84.03
79491;SHT31;73788;53.048;18.472;2023-11-19T09:18:49;1.58;84.01
79491;SHT31;73788;53.048;18.472;2023-11-19T09:21:16;1.58;84.00
79491;SHT31;73788;53.048;18.472;2023-11-19T09:23:44;1.65;84.07
79491;SHT31;73788;53.048;18.472;2023-11-19T09:26:11;1.74;84.07
79491;SHT31;73788;53.048;18.472;2023-11-19T09:28:38;1.76;84.08
79491;SHT31;73788;53.048;18.472;2023-11-19T09:31:18;1.79;84.10
79491;SHT31;73788;53.048;18.472;2023-11-19T09:33:45;1.84;84.09
79491;SHT31;73788;53.048;18.472;2023-11-19T09:36:12;1.85;84.07
79491;SHT31;73788;53.048;18.472;2023-11-19T09:38:43;1.92;84.10
79491;SHT31;73788;53.048;18.472;2023-11-19T09:41:11;1.98;84.10
79491;SHT31;73788;53.048;18.472;2023-11-19T09:43:40;2.05;84.10
79491;SHT31;73788;53.048;18.472;2023-11-19T09:46:09;2.02;84.10
79491;SHT31;73788;53.048;18.472;2023-11-19T09:48:40;1.96;84.09
79491;SHT31;73788;53.048;18.472;2023-11-19T09:51:11;1.95;84.10
79491;SHT31;73788;53.048;18.472;2023-11-19T09:53:38;1.99;84.10
79491;SHT31;73788;53.048;18.472;2023-11-19T09:56:06;2.05;84.10
79491;SHT31;73788;53.048;18.472;2023-11-19T09:58:38;2.11;84.10
79491;SHT31;73788;53.048;18.472;2023-11-19T10:01:06;2.33;84.10
79491;SHT31;73788;53.048;18.472;2023-11-19T10:03:36;2.45;84.11
79491;SHT31;73788;53.048;18.472;2023-11-19T10:06:07;2.39;84.09
79491;SHT31;73788;53.048;18.472;2023-11-19T10:08:38;2.45;84.11
79491;SHT31;73788;53.048;18.472;2023-11-19T10:11:06;2.62;84.14
79491;SHT31;73788;53.048;18.472;2023-11-19T10:13:35;2.75;84.15
79491;SHT31;73788;53.048;18.472;2023-11-19T10:16:08;2.68;84.13
79491;SHT31;73788;53.048;18.472;2023-11-19T10:18:44;2.56;84.10
79491;SHT31;73788;53.048;18.472;2023-11-19T10:21:13;2.61;84.14
79491;SHT31;73788;53.048;18.472;2023-11-19T10:23:50;2.60;84.11
79491;SHT31;73788;53.048;18.472;2023-11-19T10:26:20;2.56;84.11
79491;SHT31;73788;53.048;18.472;2023-11-19T10:28:48;2.51;84.10
79491;SHT31;73788;53.048;18.472;2023-11-19T10:31:16;2.56;84.13
79491;SHT31;73788;53.048;18.472;2023-11-19T10:33:45;2.64;84.13
79491;SHT31;73788;53.048;18.472;2023-11-19T10:36:13;2.67;84.12
79491;SHT31;73788;53.048;18.472;2023-11-19T10:38:41;2.63;84.11
79491;SHT31;73788;53.048;18.472;2023-11-19T10:41:37;2.59;84.11
79491;SHT31;73788;53.048;18.472;2023-11-19T10:44:04;2.57;84.10
79491;SHT31;73788;53.048;18.472;2023-11-19T10:46:38;2.52;84.10
79491;SHT31;73788;53.048;18.472;2023-11-19T10:49:07;2.47;84.10
79491;SHT31;73788;53.048;18.472;2023-11-19T10:51:35;2.45;84.10
79491;SHT31;73788;53.048;18.472;2023-11-19T10:54:03;2.45;84.10
79491;SHT31;73788;53.048;18.472;2023-11-19T10:56:33;2.47;84.10
79491;SHT31;73788;53.048;18.472;2023-11-19T10:59:01;2.50;84.10
79491;SHT31;73788;53.048;18.472;2023-11-19T11:01:34;2.53;84.10
79491;SHT31;73788;53.048;18.472;2023-11-19T11:04:14;2.46;84.10
79491;SHT31;73788;53.048;18.472;2023-11-19T11:06:51;2.38;84.08
79491;SHT31;73788;53.048;18.472;2023-11-19T11:09:22;2.32;84.08
79491;SHT31;73788;53.048;18.472;2023-11-19T11:11:49;2.27;84.04
79491;SHT31;73788;53.048;18.472;2023-11-19T11:14:19;2.25;84.08
79491;SHT31;73788;53.048;18.472;2023-11-19T11:16:48;2.23;84.07
79491;SHT31;73788;53.048;18.472;2023-11-19T11:19:17;2.19;84.02
79491;SHT31;73788;53.048;18.472;2023-11-19T11:21:47;2.10;84.01
79491;SHT31;73788;53.048;18.472;2023-11-19T11:29:51;1.91;84.00
79491;SHT31;73788;53.048;18.472;2023-11-19T11:38:23;1.77;84.00
79491;SHT31;73788;53.048;18.472;2023-11-19T11:43:47;1.70;84.00
79491;SHT31;73788;53.048;18.472;2023-11-19T11:49:04;1.67;83.96
79491;SHT31;73788;53.048;18.472;2023-11-19T11:54:27;1.60;83.91
79491;SHT31;73788;53.048;18.472;2023-11-19T11:57:03;1.60;83.92
79491;SHT31;73788;53.048;18.472;2023-11-19T11:59:42;1.57;83.90
79491;SHT31;73788;53.048;18.472;2023-11-19T12:02:17;1.51;83.90
79491;SHT31;73788;53.048;18.472;2023-11-19T12:04:48;1.49;83.90
79491;SHT31;73788;53.048;18.472;2023-11-19T12:07:19;1.45;83.90
79491;SHT31;73788;53.048;18.472;2023-11-19T12:09:53;1.40;83.90
79491;SHT31;73788;53.048;18.472;2023-11-19T12:12:34;1.39;83.90
79491;SHT31;73788;53.048;18.472;2023-11-19T12:15:05;1.39;83.90
79491;SHT31;73788;53.048;18.472;2023-11-19T12:17:43;1.38;83.90
79491;SHT31;73788;53.048;18.472;2023-11-19T12:20:17;1.34;83.90
79491;SHT31;73788;53.048;18.472;2023-11-19T12:22:47;1.33;83.90
79491;SHT31;73788;53.048;18.472;2023-11-19T12:25:16;1.33;83.89
79491;SHT31;73788;53.048;18.472;2023-11-19T12:27:46;1.27;83.88
79491;SHT31;73788;53.048;18.472;2023-11-19T12:30:20;1.23;83.88
79491;SHT31;73788;53.048;18.472;2023-11-19T12:32:52;1.24;83.89
79491;SHT31;73788;53.048;18.472;2023-11-19T12:35:20;1.22;83.88
79491;SHT31;73788;53.048;18.472;2023-11-19T12:37:48;1.15;83.88
79491;SHT31;73788;53.048;18.472;2023-11-19T12:40:21;1.14;83.89
79491;SHT31;73788;53.048;18.472;2023-11-19T12:42:53;1.17;83.89
79491;SHT31;73788;53.048;18.472;2023-11-19T12:45:21;1.15;83.87
79491;SHT31;73788;53.048;18.472;2023-11-19T12:47:50;1.10;83.87
79491;SHT31;73788;53.048;18.472;2023-11-19T12:50:53;1.08;83.87
79491;SHT31;73788;53.048;18.472;2023-11-19T12:53:24;1.10;83.89
79491;SHT31;73788;53.048;18.472;2023-11-19T12:55:53;1.09;83.88
79491;SHT31;73788;53.048;18.472;2023-11-19T12:58:31;1.04;83.88
79491;SHT31;73788;53.048;18.472;2023-11-19T13:01:05;1.04;83.89
79491;SHT31;73788;53.048;18.472;2023-11-19T13:03:35;1.04;83.88
79491;SHT31;73788;53.048;18.472;2023-11-19T13:06:06;1.04;83.89
79491;SHT31;73788;53.048;18.472;2023-11-19T13:11:13;0.98;83.90
79491;SHT31;73788;53.048;18.472;2023-11-19T13:16:36;1.04;83.90
79491;SHT31;73788;53.048;18.472;2023-11-19T13:19:05;1.05;83.90
79491;SHT31;73788;53.048;18.472;2023-11-19T13:21:33;1.04;83.90
79491;SHT31;73788;53.048;18.472;2023-11-19T13:24:00;1.03;83.91
79491;SHT31;73788;53.048;18.472;2023-11-19T13:26:28;1.06;83.90
79491;SHT31;73788;53.048;18.472;2023-11-19T13:28:55;1.09;83.90
79491;SHT31;73788;53.048;18.472;2023-11-19T13:31:22;1.09;83.90
79491;SHT31;73788;53.048;18.472;2023-11-19T13:33:50;1.09;83.90
79491;SHT31;73788;53.048;18.472;2023-11-19T13:36:19;1.12;83.90
79491;SHT31;73788;53.048;18.472;2023-11-19T13:39:02;1.15;83.90
79491;SHT31;73788;53.048;18.472;2023-11-19T13:41:32;1.13;83.91
79491;SHT31;73788;53.048;18.472;2023-11-19T13:44:00;1.12;83.95
79491;SHT31;73788;53.048;18.472;2023-11-19T13:46:28;1.13;83.94
79491;SHT31;73788;53.048;18.472;2023-11-19T13:49:00;1.16;83.94
79491;SHT31;73788;53.048;18.472;2023-11-19T13:51:35;1.13;83.97
79491;SHT31;73788;53.048;18.472;2023-11-19T13:54:05;1.10;83.98
79491;SHT31;73788;53.048;18.472;2023-11-19T13:56:37;1.12;83.96
79491;SHT31;73788;53.048;18.472;2023-11-19T13:59:13;1.14;83.96
79491;SHT31;73788;53.048;18.472;2023-11-19T14:01:56;1.10;83.99
79491;SHT31;73788;53.048;18.472;2023-11-19T14:04:25;1.08;84.00
79491;SHT31;73788;53.048;18.472;2023-11-19T14:06:57;1.09;84.00
79491;SHT31;73788;53.048;18.472;2023-11-19T14:09:27;1.06;84.00
79491;SHT31;73788;53.048;18.472;2023-11-19T14:11:59;1.04;84.00
79491;SHT31;73788;53.048;18.472;2023-11-19T14:14:29;1.06;84.00
79491;SHT31;73788;53.048;18.472;2023-11-19T14:17:04;1.06;84.00
79491;SHT31;73788;53.048;18.472;2023-11-19T14:19:38;1.03;84.00
79491;SHT31;73788;53.048;18.472;2023-11-19T14:22:08;1.01;84.00
79491;SHT31;73788;53.048;18.472;2023-11-19T14:24:41;1.02;84.00
79491;SHT31;73788;53.048;18.472;2023-11-19T14:27:12;1.02;84.00
79491;SHT31;73788;53.048;18.472;2023-11-19T14:29:44;0.99;84.00
79491;SHT31;73788;53.048;18.472;2023-11-19T14:32:18;0.99;84.00
79491;SHT31;73788;53.048;18.472;2023-11-19T14:34:52;1.01;84.03
79491;SHT31;73788;53.048;18.472;2023-11-19T14:37:23;0.99;84.01
79491;SHT31;73788;53.048;18.472;2023-11-19T14:40:14;0.97;84.03
79491;SHT31;73788;53.048;18.472;2023-11-19T14:42:44;0.99;84.06
79491;SHT31;73788;53.048;18.472;2023-11-19T14:45:36;1.01;84.07
79491;SHT31;73788;53.048;18.472;2023-11-19T14:48:10;0.98;84.06
79491;SHT31;73788;53.048;18.472;2023-11-19T14:50:39;0.98;84.09
79491;SHT31;73788;53.048;18.472;2023-11-19T14:53:11;1.01;84.08
79491;SHT31;73788;53.048;18.472;2023-11-19T14:55:44;1.01;84.10
79491;SHT31;73788;53.048;18.472;2023-11-19T14:58:16;1.02;84.10
79491;SHT31;73788;53.048;18.472;2023-11-19T15:00:43;1.00;84.10
79491;SHT31;73788;53.048;18.472;2023-11-19T15:03:12;1.02;84.10
79491;SHT31;73788;53.048;18.472;2023-11-19T15:05:44;1.03;84.10
79491;SHT31;73788;53.048;18.472;2023-11-19T15:08:15;1.02;84.10
79491;SHT31;73788;53.048;18.472;2023-11-19T15:10:43;0.99;84.11
79491;SHT31;73788;53.048;18.472;2023-11-19T15:13:11;1.02;84.14
79491;SHT31;73788;53.048;18.472;2023-11-19T15:15:39;1.03;84.14
79491;SHT31;73788;53.048;18.472;2023-11-19T15:18:06;1.04;84.17
79491;SHT31;73788;53.048;18.472;2023-11-19T15:20:34;1.03;84.14
79491;SHT31;73788;53.048;18.472;2023-11-19T15:23:03;1.00;84.17
79491;SHT31;73788;53.048;18.472;2023-11-19T15:25:30;1.00;84.19
79491;SHT31;73788;53.048;18.472;2023-11-19T15:27:58;1.04;84.19
79491;SHT31;73788;53.048;18.472;2023-11-19T15:30:27;1.03;84.20
79491;SHT31;73788;53.048;18.472;2023-11-19T15:32:56;1.03;84.20
79491;SHT31;73788;53.048;18.472;2023-11-19T15:36:15;0.99;84.20
79491;SHT31;73788;53.048;18.472;2023-11-19T15:38:45;0.96;84.20
79491;SHT31;73788;53.048;18.472;2023-11-19T15:41:19;0.98;84.20
79491;SHT31;73788;53.048;18.472;2023-11-19T15:43:50;0.98;84.20
79491;SHT31;73788;53.048;18.472;2023-11-19T15:46:21;0.94;84.20
79491;SHT31;73788;53.048;18.472;2023-11-19T15:49:12;0.93;84.20
79491;SHT31;73788;53.048;18.472;2023-11-19T15:51:43;0.95;84.23
79491;SHT31;73788;53.048;18.472;2023-11-19T15:54:18;0.94;84.23
79491;SHT31;73788;53.048;18.472;2023-11-19T15:56:55;0.93;84.26
79491;SHT31;73788;53.048;18.472;2023-11-19T15:59:26;0.94;84.29
79491;SHT31;73788;53.048;18.472;2023-11-19T16:02:01;0.94;84.29
79491;SHT31;73788;53.048;18.472;2023-11-19T16:05:12;0.94;84.29
79491;SHT31;73788;53.048;18.472;2023-11-19T16:08:23;0.94;84.30